sensor_id;sensor_type;location;lat;lon;timestamp;temperature;humidity
75931;DHT22;64609;47.052;15.462;2023-04-03T00:01:35;12.20;42.00
75931;DHT22;64609;47.052;15.462;2023-04-03T00:04:04;12.20;42.20
75931;DHT22;64609;47.052;15.462;2023-04-03T00:06:29;12.20;42.10
75931;DHT22;64609;47.052;15.462;2023-04-03T00:08:55;12.10;42.10
75931;DHT22;64609;47.052;15.462;2023-04-03T00:11:21;12.10;42.20
75931;DHT22;64609;47.052;15.462;2023-04-03T00:13:47;12.10;42.30
75931;DHT22;64609;47.052;15.462;2023-04-03T00:16:12;12.00;42.60
75931;DHT22;64609;47.052;15.462;2023-04-03T00:18:39;12.00;42.70
75931;DHT22;64609;47.052;15.462;2023-04-03T00:21:06;12.00;42.60
75931;DHT22;64609;47.052;15.462;2023-04-03T00:23:33;11.90;42.60
75931;DHT22;64609;47.052;15.462;2023-04-03T00:25:58;11.90;42.70
75931;DHT22;64609;47.052;15.462;2023-04-03T00:28:24;11.80;43.20
75931;DHT22;64609;47.052;15.462;2023-04-03T00:30:51;11.80;44.40
75931;DHT22;64609;47.052;15.462;2023-04-03T00:33:16;11.70;43.20
75931;DHT22;64609;47.052;15.462;2023-04-03T00:35:42;11.70;43.50
75931;DHT22;64609;47.052;15.462;2023-04-03T00:38:09;11.60;43.20
75931;DHT22;64609;47.052;15.462;2023-04-03T00:40:41;11.60;43.60
75931;DHT22;64609;47.052;15.462;2023-04-03T00:43:14;11.50;43.80
75931;DHT22;64609;47.052;15.462;2023-04-03T00:45:51;11.50;43.90
75931;DHT22;64609;47.052;15.462;2023-04-03T00:48:27;11.40;44.00
75931;DHT22;64609;47.052;15.462;2023-04-03T00:50:53;11.40;43.80
75931;DHT22;64609;47.052;15.462;2023-04-03T00:53:31;11.30;44.30
75931;DHT22;64609;47.052;15.462;2023-04-03T00:55:58;11.20;44.10
75931;DHT22;64609;47.052;15.462;2023-04-03T00:58:36;11.10;44.50
75931;DHT22;64609;47.052;15.462;2023-04-03T01:01:06;11.00;44.80
75931;DHT22;64609;47.052;15.462;2023-04-03T01:03:32;11.00;44.90
75931;DHT22;64609;47.052;15.462;2023-04-03T01:05:58;10.90;44.90
75931;DHT22;64609;47.052;15.462;2023-04-03T01:08:23;10.90;45.10
75931;DHT22;64609;47.052;15.462;2023-04-03T01:10:50;10.90;45.20
75931;DHT22;64609;47.052;15.462;2023-04-03T01:13:34;10.80;45.20
75931;DHT22;64609;47.052;15.462;2023-04-03T01:16:05;10.80;45.00
75931;DHT22;64609;47.052;15.462;2023-04-03T01:18:32;10.70;45.50
75931;DHT22;64609;47.052;15.462;2023-04-03T01:21:53;10.70;45.40
75931;DHT22;64609;47.052;15.462;2023-04-03T01:24:11;10.60;45.30
75931;DHT22;64609;47.052;15.462;2023-04-03T01:26:38;10.50;45.10
75931;DHT22;64609;47.052;15.462;2023-04-03T01:29:04;10.30;45.50
75931;DHT22;64609;47.052;15.462;2023-04-03T01:33:56;10.20;46.30
75931;DHT22;64609;47.052;15.462;2023-04-03T01:36:24;10.10;46.30
75931;DHT22;64609;47.052;15.462;2023-04-03T01:38:52;10.00;46.30
75931;DHT22;64609;47.052;15.462;2023-04-03T01:41:18;10.00;46.70
75931;DHT22;64609;47.052;15.462;2023-04-03T01:43:46;10.00;46.90
75931;DHT22;64609;47.052;15.462;2023-04-03T01:46:12;10.00;46.50
75931;DHT22;64609;47.052;15.462;2023-04-03T01:48:38;10.00;46.60
75931;DHT22;64609;47.052;15.462;2023-04-03T01:51:03;10.00;46.70
75931;DHT22;64609;47.052;15.462;2023-04-03T01:53:29;10.00;47.10
75931;DHT22;64609;47.052;15.462;2023-04-03T01:55:55;9.90;47.30
75931;DHT22;64609;47.052;15.462;2023-04-03T01:58:20;9.90;47.40
75931;DHT22;64609;47.052;15.462;2023-04-03T02:00:46;9.90;47.40
75931;DHT22;64609;47.052;15.462;2023-04-03T02:03:12;9.90;47.40
75931;DHT22;64609;47.052;15.462;2023-04-03T02:05:37;9.90;47.30
75931;DHT22;64609;47.052;15.462;2023-04-03T02:08:03;9.90;47.60
75931;DHT22;64609;47.052;15.462;2023-04-03T02:10:29;9.80;47.40
75931;DHT22;64609;47.052;15.462;2023-04-03T02:12:54;9.80;47.20
75931;DHT22;64609;47.052;15.462;2023-04-03T02:15:20;9.80;47.10
75931;DHT22;64609;47.052;15.462;2023-04-03T02:17:46;9.90;47.30
75931;DHT22;64609;47.052;15.462;2023-04-03T02:20:12;9.90;47.30
75931;DHT22;64609;47.052;15.462;2023-04-03T02:22:38;9.90;47.20
75931;DHT22;64609;47.052;15.462;2023-04-03T02:25:04;9.90;47.10
75931;DHT22;64609;47.052;15.462;2023-04-03T02:27:30;9.90;46.80
75931;DHT22;64609;47.052;15.462;2023-04-03T02:29:57;9.90;46.60
75931;DHT22;64609;47.052;15.462;2023-04-03T02:32:22;9.90;46.80
75931;DHT22;64609;47.052;15.462;2023-04-03T02:34:48;9.80;46.90
75931;DHT22;64609;47.052;15.462;2023-04-03T02:37:14;9.80;46.50
75931;DHT22;64609;47.052;15.462;2023-04-03T02:39:40;9.80;46.40
75931;DHT22;64609;47.052;15.462;2023-04-03T02:42:05;9.80;46.30
75931;DHT22;64609;47.052;15.462;2023-04-03T02:44:31;9.80;46.40
75931;DHT22;64609;47.052;15.462;2023-04-03T02:46:57;9.80;46.80
75931;DHT22;64609;47.052;15.462;2023-04-03T02:49:22;9.70;46.50
75931;DHT22;64609;47.052;15.462;2023-04-03T02:51:48;9.70;46.80
75931;DHT22;64609;47.052;15.462;2023-04-03T02:54:13;9.70;46.90
75931;DHT22;64609;47.052;15.462;2023-04-03T02:56:39;9.50;47.00
75931;DHT22;64609;47.052;15.462;2023-04-03T02:59:05;9.40;46.90
75931;DHT22;64609;47.052;15.462;2023-04-03T03:01:31;9.30;47.20
75931;DHT22;64609;47.052;15.462;2023-04-03T03:03:59;9.30;47.50
75931;DHT22;64609;47.052;15.462;2023-04-03T03:06:25;9.30;47.80
75931;DHT22;64609;47.052;15.462;2023-04-03T03:08:51;9.30;47.90
75931;DHT22;64609;47.052;15.462;2023-04-03T03:11:16;9.30;48.10
75931;DHT22;64609;47.052;15.462;2023-04-03T03:13:42;9.20;48.00
75931;DHT22;64609;47.052;15.462;2023-04-03T03:16:08;9.20;48.20
75931;DHT22;64609;47.052;15.462;2023-04-03T03:18:34;9.20;48.40
75931;DHT22;64609;47.052;15.462;2023-04-03T03:21:01;9.20;48.20
75931;DHT22;64609;47.052;15.462;2023-04-03T03:23:28;9.20;48.40
75931;DHT22;64609;47.052;15.462;2023-04-03T03:25:56;9.20;48.40
75931;DHT22;64609;47.052;15.462;2023-04-03T03:28:22;9.20;48.40
75931;DHT22;64609;47.052;15.462;2023-04-03T03:30:48;9.20;48.70
75931;DHT22;64609;47.052;15.462;2023-04-03T03:33:14;9.30;48.30
75931;DHT22;64609;47.052;15.462;2023-04-03T03:35:39;9.40;48.20
75931;DHT22;64609;47.052;15.462;2023-04-03T03:38:05;9.40;48.00
75931;DHT22;64609;47.052;15.462;2023-04-03T03:40:32;9.50;47.90
75931;DHT22;64609;47.052;15.462;2023-04-03T03:42:58;9.50;47.40
75931;DHT22;64609;47.052;15.462;2023-04-03T03:45:23;9.60;47.30
75931;DHT22;64609;47.052;15.462;2023-04-03T03:47:49;9.60;47.00
75931;DHT22;64609;47.052;15.462;2023-04-03T03:50:14;9.70;47.10
75931;DHT22;64609;47.052;15.462;2023-04-03T03:52:40;9.80;46.60
75931;DHT22;64609;47.052;15.462;2023-04-03T03:55:06;9.80;46.60
75931;DHT22;64609;47.052;15.462;2023-04-03T03:57:32;9.80;46.50
75931;DHT22;64609;47.052;15.462;2023-04-03T03:59:58;9.90;46.80
75931;DHT22;64609;47.052;15.462;2023-04-03T04:02:23;9.90;46.80
75931;DHT22;64609;47.052;15.462;2023-04-03T04:04:49;9.90;46.70
75931;DHT22;64609;47.052;15.462;2023-04-03T04:07:15;10.00;46.70
75931;DHT22;64609;47.052;15.462;2023-04-03T04:09:40;10.00;46.60
75931;DHT22;64609;47.052;15.462;2023-04-03T04:12:06;10.00;46.60
75931;DHT22;64609;47.052;15.462;2023-04-03T04:14:31;10.00;46.40
75931;DHT22;64609;47.052;15.462;2023-04-03T04:16:57;10.10;46.40
75931;DHT22;64609;47.052;15.462;2023-04-03T04:19:23;10.10;46.40
75931;DHT22;64609;47.052;15.462;2023-04-03T04:21:49;10.10;46.30
75931;DHT22;64609;47.052;15.462;2023-04-03T04:24:15;10.10;46.30
75931;DHT22;64609;47.052;15.462;2023-04-03T04:26:40;10.00;46.10
75931;DHT22;64609;47.052;15.462;2023-04-03T04:29:06;10.00;46.60
75931;DHT22;64609;47.052;15.462;2023-04-03T04:31:31;10.10;46.90
75931;DHT22;64609;47.052;15.462;2023-04-03T04:33:57;10.10;47.40
75931;DHT22;64609;47.052;15.462;2023-04-03T04:36:23;10.10;47.30
75931;DHT22;64609;47.052;15.462;2023-04-03T04:38:48;10.20;46.70
75931;DHT22;64609;47.052;15.462;2023-04-03T04:41:19;10.20;46.40
75931;DHT22;64609;47.052;15.462;2023-04-03T04:43:46;10.20;46.10
75931;DHT22;64609;47.052;15.462;2023-04-03T04:46:12;10.30;46.10
75931;DHT22;64609;47.052;15.462;2023-04-03T04:48:37;10.40;46.00
75931;DHT22;64609;47.052;15.462;2023-04-03T04:51:03;10.40;46.00
75931;DHT22;64609;47.052;15.462;2023-04-03T04:53:29;10.50;45.90
75931;DHT22;64609;47.052;15.462;2023-04-03T04:55:55;10.50;45.90
75931;DHT22;64609;47.052;15.462;2023-04-03T04:58:21;10.50;45.60
75931;DHT22;64609;47.052;15.462;2023-04-03T05:00:47;10.60;45.60
75931;DHT22;64609;47.052;15.462;2023-04-03T05:03:12;10.60;45.50
75931;DHT22;64609;47.052;15.462;2023-04-03T05:05:38;10.70;45.20
75931;DHT22;64609;47.052;15.462;2023-04-03T05:08:04;10.70;45.00
75931;DHT22;64609;47.052;15.462;2023-04-03T05:10:31;10.70;44.80
75931;DHT22;64609;47.052;15.462;2023-04-03T05:12:57;10.80;44.70
75931;DHT22;64609;47.052;15.462;2023-04-03T05:15:23;10.80;44.60
75931;DHT22;64609;47.052;15.462;2023-04-03T05:17:48;10.90;44.60
75931;DHT22;64609;47.052;15.462;2023-04-03T05:20:14;10.90;44.60
75931;DHT22;64609;47.052;15.462;2023-04-03T05:22:40;11.00;44.30
75931;DHT22;64609;47.052;15.462;2023-04-03T05:25:06;11.00;43.90
75931;DHT22;64609;47.052;15.462;2023-04-03T05:27:32;11.10;43.90
75931;DHT22;64609;47.052;15.462;2023-04-03T05:29:57;11.10;44.20
75931;DHT22;64609;47.052;15.462;2023-04-03T05:32:24;11.10;43.80
75931;DHT22;64609;47.052;15.462;2023-04-03T05:34:52;11.20;43.60
75931;DHT22;64609;47.052;15.462;2023-04-03T05:37:18;11.20;43.60
75931;DHT22;64609;47.052;15.462;2023-04-03T05:39:44;11.30;43.50
75931;DHT22;64609;47.052;15.462;2023-04-03T05:42:10;11.40;43.70
75931;DHT22;64609;47.052;15.462;2023-04-03T05:44:37;11.40;43.40
75931;DHT22;64609;47.052;15.462;2023-04-03T05:47:02;11.40;43.40
75931;DHT22;64609;47.052;15.462;2023-04-03T05:49:28;11.40;43.30
75931;DHT22;64609;47.052;15.462;2023-04-03T05:51:54;11.50;43.20
75931;DHT22;64609;47.052;15.462;2023-04-03T05:54:28;11.50;42.70
75931;DHT22;64609;47.052;15.462;2023-04-03T05:56:53;11.50;42.50
75931;DHT22;64609;47.052;15.462;2023-04-03T05:59:20;11.50;42.90
75931;DHT22;64609;47.052;15.462;2023-04-03T06:01:46;11.60;43.10
75931;DHT22;64609;47.052;15.462;2023-04-03T06:04:12;11.60;42.60
75931;DHT22;64609;47.052;15.462;2023-04-03T06:06:53;11.60;42.50
75931;DHT22;64609;47.052;15.462;2023-04-03T06:09:21;11.60;43.00
75931;DHT22;64609;47.052;15.462;2023-04-03T06:11:47;11.70;43.00
75931;DHT22;64609;47.052;15.462;2023-04-03T06:14:13;11.60;42.30
75931;DHT22;64609;47.052;15.462;2023-04-03T06:16:39;11.70;42.80
75931;DHT22;64609;47.052;15.462;2023-04-03T06:19:06;11.70;42.70
75931;DHT22;64609;47.052;15.462;2023-04-03T06:21:32;11.80;42.50
75931;DHT22;64609;47.052;15.462;2023-04-03T06:23:58;11.80;41.90
75931;DHT22;64609;47.052;15.462;2023-04-03T06:26:24;11.90;42.00
75931;DHT22;64609;47.052;15.462;2023-04-03T06:28:49;12.00;42.20
75931;DHT22;64609;47.052;15.462;2023-04-03T06:31:15;12.00;41.80
75931;DHT22;64609;47.052;15.462;2023-04-03T06:33:41;12.10;41.80
75931;DHT22;64609;47.052;15.462;2023-04-03T06:36:09;12.10;41.90
75931;DHT22;64609;47.052;15.462;2023-04-03T06:38:35;12.10;41.70
75931;DHT22;64609;47.052;15.462;2023-04-03T06:41:01;12.20;41.50
75931;DHT22;64609;47.052;15.462;2023-04-03T06:43:26;12.20;41.70
75931;DHT22;64609;47.052;15.462;2023-04-03T06:45:52;12.30;41.80
75931;DHT22;64609;47.052;15.462;2023-04-03T06:48:18;12.30;41.60
75931;DHT22;64609;47.052;15.462;2023-04-03T06:50:44;12.40;41.40
75931;DHT22;64609;47.052;15.462;2023-04-03T06:53:10;12.50;41.20
75931;DHT22;64609;47.052;15.462;2023-04-03T06:55:36;12.70;41.00
75931;DHT22;64609;47.052;15.462;2023-04-03T06:58:03;12.80;40.70
75931;DHT22;64609;47.052;15.462;2023-04-03T07:00:29;13.00;40.50
75931;DHT22;64609;47.052;15.462;2023-04-03T07:02:55;13.00;39.80
75931;DHT22;64609;47.052;15.462;2023-04-03T07:05:23;13.10;40.30
75931;DHT22;64609;47.052;15.462;2023-04-03T07:07:48;13.10;40.00
75931;DHT22;64609;47.052;15.462;2023-04-03T07:10:15;13.20;40.40
75931;DHT22;64609;47.052;15.462;2023-04-03T07:12:41;13.10;39.20
75931;DHT22;64609;47.052;15.462;2023-04-03T07:15:08;13.20;39.60
75931;DHT22;64609;47.052;15.462;2023-04-03T07:17:34;13.40;39.50
75931;DHT22;64609;47.052;15.462;2023-04-03T07:20:01;13.50;39.50
75931;DHT22;64609;47.052;15.462;2023-04-03T07:22:27;13.50;38.40
75931;DHT22;64609;47.052;15.462;2023-04-03T07:24:53;13.50;39.20
75931;DHT22;64609;47.052;15.462;2023-04-03T07:27:19;13.60;38.90
75931;DHT22;64609;47.052;15.462;2023-04-03T07:29:44;13.70;38.80
75931;DHT22;64609;47.052;15.462;2023-04-03T07:32:10;13.90;38.40
75931;DHT22;64609;47.052;15.462;2023-04-03T07:34:36;14.00;37.80
75931;DHT22;64609;47.052;15.462;2023-04-03T07:37:02;14.00;37.70
75931;DHT22;64609;47.052;15.462;2023-04-03T07:39:28;14.10;38.50
75931;DHT22;64609;47.052;15.462;2023-04-03T07:41:54;14.10;37.60
75931;DHT22;64609;47.052;15.462;2023-04-03T07:44:22;14.00;37.30
75931;DHT22;64609;47.052;15.462;2023-04-03T07:46:48;14.00;36.60
75931;DHT22;64609;47.052;15.462;2023-04-03T07:49:14;13.90;36.50
75931;DHT22;64609;47.052;15.462;2023-04-03T07:51:39;13.80;36.90
75931;DHT22;64609;47.052;15.462;2023-04-03T07:54:06;13.90;37.20
75931;DHT22;64609;47.052;15.462;2023-04-03T07:56:32;13.90;36.60
75931;DHT22;64609;47.052;15.462;2023-04-03T07:58:57;13.90;36.60
75931;DHT22;64609;47.052;15.462;2023-04-03T08:01:23;13.90;37.10
75931;DHT22;64609;47.052;15.462;2023-04-03T08:03:49;14.10;36.70
75931;DHT22;64609;47.052;15.462;2023-04-03T08:06:14;14.20;36.30
75931;DHT22;64609;47.052;15.462;2023-04-03T08:08:40;14.10;36.20
75931;DHT22;64609;47.052;15.462;2023-04-03T08:11:06;14.10;36.00
75931;DHT22;64609;47.052;15.462;2023-04-03T08:13:34;14.00;35.30
75931;DHT22;64609;47.052;15.462;2023-04-03T08:16:10;13.90;35.80
75931;DHT22;64609;47.052;15.462;2023-04-03T08:18:36;14.00;35.90
75931;DHT22;64609;47.052;15.462;2023-04-03T08:21:06;14.00;36.10
75931;DHT22;64609;47.052;15.462;2023-04-03T08:23:32;14.10;35.90
75931;DHT22;64609;47.052;15.462;2023-04-03T08:25:58;14.10;35.30
75931;DHT22;64609;47.052;15.462;2023-04-03T08:28:23;14.10;34.70
75931;DHT22;64609;47.052;15.462;2023-04-03T08:30:49;14.10;34.90
75931;DHT22;64609;47.052;15.462;2023-04-03T08:33:16;14.30;35.10
75931;DHT22;64609;47.052;15.462;2023-04-03T08:35:42;14.60;33.90
75931;DHT22;64609;47.052;15.462;2023-04-03T08:38:09;14.80;33.70
75931;DHT22;64609;47.052;15.462;2023-04-03T08:40:35;15.20;33.20
75931;DHT22;64609;47.052;15.462;2023-04-03T08:43:50;15.40;32.60
75931;DHT22;64609;47.052;15.462;2023-04-03T08:46:17;15.40;32.80
75931;DHT22;64609;47.052;15.462;2023-04-03T08:48:47;15.30;33.20
75931;DHT22;64609;47.052;15.462;2023-04-03T08:51:17;15.30;33.10
75931;DHT22;64609;47.052;15.462;2023-04-03T08:53:51;15.20;34.10
75931;DHT22;64609;47.052;15.462;2023-04-03T08:56:21;15.20;32.80
75931;DHT22;64609;47.052;15.462;2023-04-03T08:58:57;15.20;32.60
75931;DHT22;64609;47.052;15.462;2023-04-03T09:01:27;15.20;32.00
75931;DHT22;64609;47.052;15.462;2023-04-03T09:03:55;15.20;31.70
75931;DHT22;64609;47.052;15.462;2023-04-03T09:06:26;15.20;31.60
75931;DHT22;64609;47.052;15.462;2023-04-03T09:09:01;15.20;31.70
75931;DHT22;64609;47.052;15.462;2023-04-03T09:16:54;15.40;30.10
75931;DHT22;64609;47.052;15.462;2023-04-03T09:21:57;15.10;30.50
75931;DHT22;64609;47.052;15.462;2023-04-03T09:24:23;15.10;30.90
75931;DHT22;64609;47.052;15.462;2023-04-03T09:27:03;15.10;31.20
75931;DHT22;64609;47.052;15.462;2023-04-03T09:29:30;15.00;30.60
75931;DHT22;64609;47.052;15.462;2023-04-03T09:32:08;14.90;30.00
75931;DHT22;64609;47.052;15.462;2023-04-03T09:34:39;14.80;30.30
75931;DHT22;64609;47.052;15.462;2023-04-03T09:37:06;14.70;30.00
75931;DHT22;64609;47.052;15.462;2023-04-03T09:39:50;14.70;30.50
75931;DHT22;64609;47.052;15.462;2023-04-03T09:42:21;14.60;30.50
75931;DHT22;64609;47.052;15.462;2023-04-03T09:44:56;14.60;30.60
75931;DHT22;64609;47.052;15.462;2023-04-03T09:47:33;14.60;30.80
75931;DHT22;64609;47.052;15.462;2023-04-03T09:50:21;14.60;31.00
75931;DHT22;64609;47.052;15.462;2023-04-03T09:52:50;14.50;30.50
75931;DHT22;64609;47.052;15.462;2023-04-03T09:55:27;14.50;30.20
75931;DHT22;64609;47.052;15.462;2023-04-03T09:57:58;14.50;30.30
75931;DHT22;64609;47.052;15.462;2023-04-03T10:00:35;14.50;30.70
75931;DHT22;64609;47.052;15.462;2023-04-03T10:03:02;14.60;30.80
75931;DHT22;64609;47.052;15.462;2023-04-03T10:05:40;14.70;31.20
75931;DHT22;64609;47.052;15.462;2023-04-03T10:10:45;14.80;30.50
75931;DHT22;64609;47.052;15.462;2023-04-03T10:13:13;14.90;30.20
75931;DHT22;64609;47.052;15.462;2023-04-03T10:15:45;15.00;30.20
75931;DHT22;64609;47.052;15.462;2023-04-03T10:20:52;15.50;30.50
75931;DHT22;64609;47.052;15.462;2023-04-03T10:26:16;15.80;30.40
75931;DHT22;64609;47.052;15.462;2023-04-03T10:29:01;16.30;30.00
75931;DHT22;64609;47.052;15.462;2023-04-03T10:31:42;16.60;29.40
75931;DHT22;64609;47.052;15.462;2023-04-03T10:34:24;16.60;29.30
75931;DHT22;64609;47.052;15.462;2023-04-03T10:37:22;16.60;29.30
75931;DHT22;64609;47.052;15.462;2023-04-03T10:40:28;16.70;29.40
75931;DHT22;64609;47.052;15.462;2023-04-03T10:43:02;16.60;29.40
75931;DHT22;64609;47.052;15.462;2023-04-03T10:50:58;16.80;29.90
75931;DHT22;64609;47.052;15.462;2023-04-03T10:53:50;16.80;29.40
75931;DHT22;64609;47.052;15.462;2023-04-03T10:56:28;16.60;29.80
75931;DHT22;64609;47.052;15.462;2023-04-03T11:01:46;16.50;30.10
75931;DHT22;64609;47.052;15.462;2023-04-03T11:04:16;16.50;29.90
75931;DHT22;64609;47.052;15.462;2023-04-03T11:06:49;16.40;29.70
75931;DHT22;64609;47.052;15.462;2023-04-03T11:09:34;16.20;29.30
75931;DHT22;64609;47.052;15.462;2023-04-03T11:12:36;16.30;29.20
75931;DHT22;64609;47.052;15.462;2023-04-03T11:15:04;16.20;29.70
75931;DHT22;64609;47.052;15.462;2023-04-03T11:17:38;16.10;29.10
75931;DHT22;64609;47.052;15.462;2023-04-03T11:20:28;16.00;29.00
75931;DHT22;64609;47.052;15.462;2023-04-03T11:25:30;16.10;29.30
75931;DHT22;64609;47.052;15.462;2023-04-03T11:28:01;16.10;29.10
75931;DHT22;64609;47.052;15.462;2023-04-03T11:35:32;16.20;29.10
75931;DHT22;64609;47.052;15.462;2023-04-03T11:38:00;16.20;29.20
75931;DHT22;64609;47.052;15.462;2023-04-03T11:40:35;16.30;29.20
75931;DHT22;64609;47.052;15.462;2023-04-03T11:43:24;16.30;29.00
75931;DHT22;64609;47.052;15.462;2023-04-03T11:45:56;16.60;29.20
75931;DHT22;64609;47.052;15.462;2023-04-03T11:53:39;16.50;29.10
75931;DHT22;64609;47.052;15.462;2023-04-03T12:02:34;16.20;29.50
75931;DHT22;64609;47.052;15.462;2023-04-03T12:05:27;16.20;29.80
75931;DHT22;64609;47.052;15.462;2023-04-03T12:08:16;16.20;29.80
75931;DHT22;64609;47.052;15.462;2023-04-03T12:10:41;16.20;29.40
75931;DHT22;64609;47.052;15.462;2023-04-03T12:13:15;16.20;29.50
75931;DHT22;64609;47.052;15.462;2023-04-03T12:21:03;16.10;29.30
75931;DHT22;64609;47.052;15.462;2023-04-03T12:23:34;16.20;29.80
75931;DHT22;64609;47.052;15.462;2023-04-03T12:26:06;16.30;29.40
75931;DHT22;64609;47.052;15.462;2023-04-03T12:28:45;16.50;29.00
75931;DHT22;64609;47.052;15.462;2023-04-03T12:31:12;16.70;28.80
75931;DHT22;64609;47.052;15.462;2023-04-03T12:36:24;16.60;28.60
75931;DHT22;64609;47.052;15.462;2023-04-03T12:38:58;16.50;28.10
75931;DHT22;64609;47.052;15.462;2023-04-03T12:41:48;16.50;28.30
75931;DHT22;64609;47.052;15.462;2023-04-03T12:47:33;16.50;27.90
75931;DHT22;64609;47.052;15.462;2023-04-03T12:50:02;16.50;28.90
75931;DHT22;64609;47.052;15.462;2023-04-03T12:52:36;16.60;29.00
75931;DHT22;64609;47.052;15.462;2023-04-03T12:55:14;16.90;28.70
75931;DHT22;64609;47.052;15.462;2023-04-03T12:57:40;17.40;28.40
75931;DHT22;64609;47.052;15.462;2023-04-03T13:00:26;17.70;28.30
75931;DHT22;64609;47.052;15.462;2023-04-03T13:02:53;18.00;27.70
75931;DHT22;64609;47.052;15.462;2023-04-03T13:05:19;18.30;27.20
75931;DHT22;64609;47.052;15.462;2023-04-03T13:08:08;18.30;27.10
75931;DHT22;64609;47.052;15.462;2023-04-03T13:10:49;18.10;26.90
75931;DHT22;64609;47.052;15.462;2023-04-03T13:13:15;17.80;27.40
75931;DHT22;64609;47.052;15.462;2023-04-03T13:15:45;17.60;27.60
75931;DHT22;64609;47.052;15.462;2023-04-03T13:21:04;17.20;27.80
75931;DHT22;64609;47.052;15.462;2023-04-03T13:23:32;17.20;28.60
75931;DHT22;64609;47.052;15.462;2023-04-03T13:25:59;17.20;27.90
75931;DHT22;64609;47.052;15.462;2023-04-03T13:28:29;17.00;28.00
75931;DHT22;64609;47.052;15.462;2023-04-03T13:33:29;16.80;28.10
75931;DHT22;64609;47.052;15.462;2023-04-03T13:36:04;16.70;27.90
75931;DHT22;64609;47.052;15.462;2023-04-03T13:38:32;16.60;27.90
75931;DHT22;64609;47.052;15.462;2023-04-03T13:41:01;16.70;27.90
75931;DHT22;64609;47.052;15.462;2023-04-03T13:43:32;16.70;27.70
75931;DHT22;64609;47.052;15.462;2023-04-03T13:48:27;16.60;27.80
75931;DHT22;64609;47.052;15.462;2023-04-03T13:51:06;16.70;27.50
75931;DHT22;64609;47.052;15.462;2023-04-03T13:53:33;16.80;27.60
75931;DHT22;64609;47.052;15.462;2023-04-03T13:56:25;16.90;27.80
75931;DHT22;64609;47.052;15.462;2023-04-03T14:01:24;16.90;27.80
75931;DHT22;64609;47.052;15.462;2023-04-03T14:04:09;16.80;27.80
75931;DHT22;64609;47.052;15.462;2023-04-03T14:06:35;16.80;27.50
75931;DHT22;64609;47.052;15.462;2023-04-03T14:09:01;16.70;27.50
75931;DHT22;64609;47.052;15.462;2023-04-03T14:11:29;16.60;27.30
75931;DHT22;64609;47.052;15.462;2023-04-03T14:13:58;16.50;27.40
75931;DHT22;64609;47.052;15.462;2023-04-03T14:16:27;16.60;27.60
75931;DHT22;64609;47.052;15.462;2023-04-03T14:18:55;16.60;27.20
75931;DHT22;64609;47.052;15.462;2023-04-03T14:21:21;16.70;27.70
75931;DHT22;64609;47.052;15.462;2023-04-03T14:23:47;16.80;27.40
75931;DHT22;64609;47.052;15.462;2023-04-03T14:26:17;16.90;27.50
75931;DHT22;64609;47.052;15.462;2023-04-03T14:28:45;17.00;27.30
75931;DHT22;64609;47.052;15.462;2023-04-03T14:31:11;16.80;27.20
75931;DHT22;64609;47.052;15.462;2023-04-03T14:33:38;16.60;27.50
75931;DHT22;64609;47.052;15.462;2023-04-03T14:36:20;16.60;27.40
75931;DHT22;64609;47.052;15.462;2023-04-03T14:38:47;16.60;28.00
75931;DHT22;64609;47.052;15.462;2023-04-03T14:41:15;16.70;27.90
75931;DHT22;64609;47.052;15.462;2023-04-03T14:43:42;16.80;27.50
75931;DHT22;64609;47.052;15.462;2023-04-03T14:46:38;16.90;27.30
75931;DHT22;64609;47.052;15.462;2023-04-03T14:49:03;16.90;27.20
75931;DHT22;64609;47.052;15.462;2023-04-03T14:51:33;16.90;27.50
75931;DHT22;64609;47.052;15.462;2023-04-03T14:53:59;17.00;27.50
75931;DHT22;64609;47.052;15.462;2023-04-03T14:56:27;16.90;27.50
75931;DHT22;64609;47.052;15.462;2023-04-03T14:59:01;16.80;27.70
75931;DHT22;64609;47.052;15.462;2023-04-03T15:01:28;16.80;27.40
75931;DHT22;64609;47.052;15.462;2023-04-03T15:03:54;16.70;27.40
75931;DHT22;64609;47.052;15.462;2023-04-03T15:06:19;16.70;27.70
75931;DHT22;64609;47.052;15.462;2023-04-03T15:08:47;16.70;27.60
75931;DHT22;64609;47.052;15.462;2023-04-03T15:11:13;16.70;27.50
75931;DHT22;64609;47.052;15.462;2023-04-03T15:13:39;16.80;27.40
75931;DHT22;64609;47.052;15.462;2023-04-03T15:16:10;16.70;27.50
75931;DHT22;64609;47.052;15.462;2023-04-03T15:18:38;16.60;27.90
75931;DHT22;64609;47.052;15.462;2023-04-03T15:21:04;16.70;27.80
75931;DHT22;64609;47.052;15.462;2023-04-03T15:23:30;16.70;27.40
75931;DHT22;64609;47.052;15.462;2023-04-03T15:25:56;16.70;27.40
75931;DHT22;64609;47.052;15.462;2023-04-03T15:28:38;16.50;27.30
75931;DHT22;64609;47.052;15.462;2023-04-03T15:31:05;16.50;27.50
75931;DHT22;64609;47.052;15.462;2023-04-03T15:33:32;16.40;27.40
75931;DHT22;64609;47.052;15.462;2023-04-03T15:35:58;16.30;27.10
75931;DHT22;64609;47.052;15.462;2023-04-03T15:38:24;16.30;26.80
75931;DHT22;64609;47.052;15.462;2023-04-03T15:40:50;16.20;26.70
75931;DHT22;64609;47.052;15.462;2023-04-03T15:43:16;16.30;27.10
75931;DHT22;64609;47.052;15.462;2023-04-03T15:45:41;16.20;27.20
75931;DHT22;64609;47.052;15.462;2023-04-03T15:48:08;16.20;27.10
75931;DHT22;64609;47.052;15.462;2023-04-03T15:50:34;16.20;27.00
75931;DHT22;64609;47.052;15.462;2023-04-03T15:53:00;16.10;26.90
75931;DHT22;64609;47.052;15.462;2023-04-03T15:55:30;16.00;27.00
75931;DHT22;64609;47.052;15.462;2023-04-03T15:57:56;16.00;27.50
75931;DHT22;64609;47.052;15.462;2023-04-03T16:00:23;16.10;27.40
75931;DHT22;64609;47.052;15.462;2023-04-03T16:02:52;16.00;27.50
75931;DHT22;64609;47.052;15.462;2023-04-03T16:05:19;15.80;27.40
75931;DHT22;64609;47.052;15.462;2023-04-03T16:07:45;15.70;27.60
75931;DHT22;64609;47.052;15.462;2023-04-03T16:10:12;15.70;27.70
75931;DHT22;64609;47.052;15.462;2023-04-03T16:12:38;15.60;27.80
75931;DHT22;64609;47.052;15.462;2023-04-03T16:15:05;15.70;27.90
75931;DHT22;64609;47.052;15.462;2023-04-03T16:17:32;15.60;27.80
75931;DHT22;64609;47.052;15.462;2023-04-03T16:19:59;15.50;28.20
75931;DHT22;64609;47.052;15.462;2023-04-03T16:22:26;15.50;28.10
75931;DHT22;64609;47.052;15.462;2023-04-03T16:24:53;15.50;27.80
75931;DHT22;64609;47.052;15.462;2023-04-03T16:27:19;15.40;27.80
75931;DHT22;64609;47.052;15.462;2023-04-03T16:29:45;15.30;27.60
75931;DHT22;64609;47.052;15.462;2023-04-03T16:32:11;15.10;27.50
75931;DHT22;64609;47.052;15.462;2023-04-03T16:34:38;14.90;27.80
75931;DHT22;64609;47.052;15.462;2023-04-03T16:37:03;14.70;27.90